Dianopolis, Brazil
Current Conditions -  °F | °C
As of 6:00 PM on Tuesday 25 Nov 2014 (Local Time) from SBPJ Reporting Station
Thunderstorm Thunderstorm  
Wind Chill: 77°   Ceiling: Unl
Heat Index: 78°   Visibility: 6mi
Dew Point: 72°   Wind: 6mph
Humidity: 83%   Direction: 130°SE
Pressure: 29.8"   Gusts: NA
Location:  11.63°S, 46.82°W
Report Text: SBPJ 252100Z 13005KT 9999 TS SCT025 FEW027CB SCT100 25/22 Q1009
Loading
Personal Weather Stations






























Interactive Weather Map New forecast layout! Learn more

10-Day Weather Forecast

Advertisements
Track Severe Weather on mobile